createdAt,value
2022-09-17T00:01:45.683Z,1.60
2022-09-17T00:05:26.720Z,1.40
2022-09-17T00:08:58.660Z,1.20
2022-09-17T00:12:36.708Z,1.30
2022-09-17T00:16:12.481Z,1.30
2022-09-17T00:20:12.164Z,1.90
2022-09-17T00:23:33.933Z,1.40
2022-09-17T00:27:29.764Z,1.40
2022-09-17T00:31:10.759Z,2.40
2022-09-17T00:34:33.008Z,1.80
2022-09-17T00:38:10.715Z,2.50
2022-09-17T00:41:46.569Z,2.20
2022-09-17T00:45:42.508Z,2.80
2022-09-17T00:49:12.878Z,2.70
2022-09-17T00:52:47.992Z,2.50
2022-09-17T00:56:27.011Z,2.30
2022-09-17T00:59:56.327Z,2.70
2022-09-17T01:03:50.203Z,2.30
2022-09-17T01:07:58.397Z,2.10
2022-09-17T01:11:48.766Z,3.20
2022-09-17T01:15:28.569Z,2.10
2022-09-17T01:19:05.639Z,2.40
2022-09-17T01:22:31.060Z,2.00
2022-09-17T01:26:39.721Z,2.40
2022-09-17T01:30:31.805Z,2.60
2022-09-17T01:34:27.418Z,2.00
2022-09-17T01:38:43.721Z,2.20
2022-09-17T01:42:37.145Z,2.20
2022-09-17T01:46:17.069Z,2.20
2022-09-17T01:50:04.530Z,1.90
2022-09-17T01:53:38.775Z,2.20
2022-09-17T01:57:17.142Z,2.20
2022-09-17T02:01:08.865Z,2.80
2022-09-17T02:04:37.078Z,1.80
2022-09-17T02:08:20.601Z,2.60
2022-09-17T02:11:49.628Z,2.30
2022-09-17T02:15:27.527Z,2.50
2022-09-17T02:19:06.960Z,2.30
2022-09-17T02:22:52.641Z,2.50
2022-09-17T02:26:20.453Z,2.70
2022-09-17T02:29:51.699Z,2.70
2022-09-17T02:33:30.961Z,3.50
2022-09-17T02:37:06.829Z,3.00
2022-09-17T02:40:50.042Z,5.50
2022-09-17T02:44:44.904Z,14.70
2022-09-17T02:48:36.986Z,9.30
2022-09-17T02:52:24.125Z,14.90
2022-09-17T02:55:52.603Z,12.70
2022-09-17T02:59:41.964Z,5.30
2022-09-17T03:03:20.934Z,6.60
2022-09-17T03:07:08.444Z,5.10
2022-09-17T03:10:33.602Z,15.40
2022-09-17T03:14:06.657Z,9.30
2022-09-17T03:17:43.492Z,5.80
2022-09-17T03:21:20.340Z,5.60
2022-09-17T03:25:16.213Z,4.50
2022-09-17T03:28:37.716Z,4.90
2022-09-17T03:32:14.496Z,4.50
2022-09-17T03:35:51.106Z,4.60
2022-09-17T03:39:29.434Z,5.20
2022-09-17T03:43:06.085Z,4.50
2022-09-17T03:46:42.085Z,13.80
2022-09-17T03:50:37.464Z,4.90
2022-09-17T03:53:59.231Z,5.10
2022-09-17T03:57:36.071Z,5.60
2022-09-17T04:01:13.350Z,5.20
2022-09-17T04:05:08.880Z,5.70
2022-09-17T04:08:31.160Z,5.40
2022-09-17T04:12:07.810Z,6.00
2022-09-17T04:15:45.393Z,5.30
2022-09-17T04:19:21.417Z,5.80
2022-09-17T04:22:58.106Z,8.20
2022-09-17T04:26:35.090Z,5.90
2022-09-17T04:30:13.015Z,6.60
2022-09-17T04:33:48.754Z,6.00
2022-09-17T04:37:25.961Z,5.30
2022-09-17T04:41:21.262Z,6.10
2022-09-17T04:45:02.072Z,6.60
2022-09-17T04:48:43.216Z,7.40
2022-09-17T04:52:05.239Z,8.30
2022-09-17T04:55:43.727Z,7.50
2022-09-17T04:59:18.632Z,7.60
2022-09-17T05:02:56.542Z,8.90
2022-09-17T05:06:32.260Z,9.50
2022-09-17T05:10:10.459Z,9.00
2022-09-17T05:13:46.253Z,10.60
2022-09-17T05:17:22.551Z,9.60
2022-09-17T05:20:59.416Z,9.70
2022-09-17T05:24:39.338Z,10.10
2022-09-17T05:28:12.994Z,12.70
2022-09-17T05:31:49.753Z,12.00
2022-09-17T05:35:45.994Z,16.10
2022-09-17T05:39:07.839Z,29.40
2022-09-17T05:42:44.430Z,9.80
2022-09-17T05:46:21.235Z,8.80
2022-09-17T05:50:16.895Z,9.40
2022-09-17T05:53:42.504Z,9.30
2022-09-17T05:57:16.128Z,8.80
2022-09-17T06:01:15.460Z,8.80
2022-09-17T06:05:00.149Z,7.60
2022-09-17T06:08:22.684Z,7.90
2022-09-17T06:11:58.412Z,7.50
2022-09-17T06:15:35.484Z,6.30
2022-09-17T06:19:11.830Z,5.60
2022-09-17T06:22:48.606Z,6.90
2022-09-17T06:26:44.720Z,4.90
2022-09-17T06:30:07.606Z,5.60
2022-09-17T06:33:43.495Z,3.80
2022-09-17T06:37:20.092Z,3.40
2022-09-17T06:40:57.036Z,3.70
2022-09-17T06:44:33.918Z,3.90
2022-09-17T06:48:10.935Z,4.00
2022-09-17T06:52:06.340Z,3.60
2022-09-17T06:55:47.580Z,3.70
2022-09-17T06:59:09.224Z,3.50
2022-09-17T07:03:04.915Z,3.50
2022-09-17T07:06:27.026Z,5.20
2022-09-17T07:10:03.587Z,3.00
2022-09-17T07:13:40.134Z,3.60
2022-09-17T07:17:17.184Z,3.80
2022-09-17T07:20:59.656Z,4.30
2022-09-17T07:24:32.966Z,3.80
2022-09-17T07:28:28.219Z,3.50
2022-09-17T07:32:09.386Z,3.10
2022-09-17T07:35:31.630Z,3.60
2022-09-17T07:39:27.824Z,3.40
2022-09-17T07:42:51.106Z,3.20
2022-09-17T07:46:45.257Z,2.90
2022-09-17T07:50:08.571Z,2.00
2022-09-17T07:53:43.753Z,2.80
2022-09-17T07:57:39.767Z,2.40
2022-09-17T08:01:07.174Z,2.40
2022-09-17T08:04:37.846Z,2.40
2022-09-17T08:08:18.863Z,2.30
2022-09-17T08:12:10.537Z,2.00
2022-09-17T08:15:33.732Z,1.80
2022-09-17T08:19:32.347Z,1.60
2022-09-17T08:23:00.462Z,1.60
2022-09-17T08:26:30.938Z,2.20
2022-09-17T08:30:08.433Z,2.40
2022-09-17T08:34:10.113Z,2.10
2022-09-17T08:37:32.990Z,1.60
2022-09-17T08:41:12.583Z,1.80
2022-09-17T08:44:48.598Z,2.30
2022-09-17T08:48:25.626Z,2.10
2022-09-17T08:52:20.657Z,2.10
2022-09-17T08:56:12.715Z,1.70
2022-09-17T09:00:09.293Z,1.80
2022-09-17T09:03:34.435Z,1.80
2022-09-17T09:07:39.703Z,2.00
2022-09-17T09:11:05.699Z,1.40
2022-09-17T09:14:51.314Z,1.80
2022-09-17T09:18:42.430Z,2.20
2022-09-17T09:22:14.840Z,1.70
2022-09-17T09:26:08.388Z,2.30
2022-09-17T09:30:11.479Z,1.70
2022-09-17T09:33:39.336Z,2.00
2022-09-17T09:37:22.175Z,1.50
2022-09-17T09:41:16.852Z,1.80
2022-09-17T09:44:39.814Z,2.00
2022-09-17T09:49:00.030Z,1.40
2022-09-17T09:52:46.574Z,1.10
2022-09-17T09:56:42.198Z,1.10
2022-09-17T10:00:28.146Z,1.40
2022-09-17T10:04:31.811Z,1.60
2022-09-17T10:07:54.278Z,2.00
2022-09-17T10:12:04.772Z,1.40
2022-09-17T10:15:28.427Z,1.20
2022-09-17T10:19:24.736Z,1.10
2022-09-17T10:23:06.577Z,1.40
2022-09-17T10:26:32.506Z,1.30
2022-09-17T10:30:08.176Z,1.60
2022-09-17T10:33:52.864Z,1.50
2022-09-17T10:37:45.801Z,1.60
2022-09-17T10:41:13.381Z,2.00
2022-09-17T10:45:00.039Z,2.10
2022-09-17T10:48:22.832Z,1.80
2022-09-17T10:52:34.379Z,1.30
2022-09-17T10:56:23.095Z,1.40
2022-09-17T11:00:13.380Z,1.90
2022-09-17T11:03:48.859Z,2.20
2022-09-17T11:08:17.327Z,2.10
2022-09-17T11:12:19.249Z,1.60
2022-09-17T11:16:02.305Z,2.10
2022-09-17T11:19:36.457Z,2.20
2022-09-17T11:23:37.648Z,2.50
2022-09-17T11:27:15.235Z,2.50
2022-09-17T11:30:57.478Z,2.20
2022-09-17T11:34:29.292Z,1.60
2022-09-17T11:38:21.809Z,1.60
2022-09-17T11:41:49.398Z,1.80
2022-09-17T11:45:27.309Z,1.90
2022-09-17T11:49:05.773Z,2.30
2022-09-17T11:53:04.103Z,1.90
2022-09-17T11:56:31.126Z,1.60
2022-09-17T12:00:18.154Z,2.40
2022-09-17T12:03:49.170Z,2.70
2022-09-17T12:07:42.692Z,2.00
2022-09-17T12:11:32.742Z,1.80
2022-09-17T12:15:01.653Z,1.30
2022-09-17T12:18:43.732Z,2.30
2022-09-17T12:22:17.986Z,1.90
2022-09-17T12:26:19.113Z,2.20
2022-09-17T12:30:23.006Z,2.50
2022-09-17T12:34:50.079Z,2.30
2022-09-17T12:38:53.140Z,2.00
2022-09-17T12:42:40.104Z,2.50
2022-09-17T12:46:33.686Z,2.20
2022-09-17T12:50:18.787Z,2.50
2022-09-17T12:53:59.771Z,1.80
2022-09-17T12:57:45.108Z,1.60
2022-09-17T13:01:20.935Z,1.40
2022-09-17T13:05:24.145Z,1.60
2022-09-17T13:09:26.909Z,2.00
2022-09-17T13:13:00.920Z,2.50
2022-09-17T13:16:49.321Z,2.50
2022-09-17T13:20:20.859Z,1.70
2022-09-17T13:23:51.581Z,1.90
2022-09-17T13:27:26.879Z,2.10
2022-09-17T13:31:02.110Z,2.00
2022-09-17T13:34:38.864Z,2.20
2022-09-17T13:38:20.188Z,2.10
2022-09-17T13:42:16.729Z,2.20
2022-09-17T13:46:00.890Z,1.70
2022-09-17T13:49:23.698Z,1.80
2022-09-17T13:53:26.195Z,2.40
2022-09-17T13:57:07.937Z,1.90
2022-09-17T14:01:07.274Z,2.10
2022-09-17T14:04:54.166Z,2.70
2022-09-17T14:08:31.671Z,2.00
2022-09-17T14:11:54.759Z,1.70
2022-09-17T14:15:33.852Z,2.00
2022-09-17T14:19:37.067Z,1.60
2022-09-17T14:23:02.670Z,1.40
2022-09-17T14:27:09.100Z,2.30
2022-09-17T14:30:33.672Z,2.20
2022-09-17T14:34:22.150Z,2.30
2022-09-17T14:38:33.136Z,2.40
2022-09-17T14:41:56.047Z,2.30
2022-09-17T14:45:35.909Z,2.40
2022-09-17T14:49:33.388Z,1.80
2022-09-17T14:52:56.761Z,1.60
2022-09-17T14:56:59.292Z,2.40
2022-09-17T15:00:46.471Z,2.00
2022-09-17T15:04:14.668Z,2.30
2022-09-17T15:07:46.617Z,1.80
2022-09-17T15:11:22.610Z,2.70
2022-09-17T15:15:25.893Z,4.10
2022-09-17T15:18:54.416Z,2.30
2022-09-17T15:22:46.142Z,2.30
2022-09-17T15:26:08.071Z,2.40
2022-09-17T15:29:49.863Z,2.30
2022-09-17T15:33:42.082Z,1.80
2022-09-17T15:37:17.595Z,1.90
2022-09-17T15:40:42.171Z,1.90
2022-09-17T15:44:32.078Z,2.30
2022-09-17T15:48:00.617Z,2.10
2022-09-17T15:51:35.038Z,2.20
2022-09-17T15:55:48.427Z,2.90
2022-09-17T15:59:37.587Z,4.90
2022-09-17T16:03:41.873Z,3.70
2022-09-17T16:07:28.881Z,3.70
2022-09-17T16:10:50.945Z,2.90
2022-09-17T16:14:27.767Z,3.40
2022-09-17T16:18:05.300Z,2.50
2022-09-17T16:21:41.343Z,2.80
2022-09-17T16:25:38.499Z,6.10
2022-09-17T16:29:07.348Z,7.50
2022-09-17T16:32:38.257Z,4.60
2022-09-17T16:36:17.047Z,4.30
2022-09-17T16:39:52.484Z,3.80
2022-09-17T16:43:27.713Z,2.50
2022-09-17T16:47:04.457Z,2.90
2022-09-17T16:51:05.593Z,6.00
2022-09-17T16:54:27.369Z,14.20
2022-09-17T16:58:04.265Z,8.70
2022-09-17T17:01:41.339Z,6.40
2022-09-17T17:05:37.514Z,7.90
2022-09-17T17:09:02.412Z,5.30
2022-09-17T17:12:56.694Z,4.00
2022-09-17T17:16:19.311Z,4.50
2022-09-17T17:19:55.596Z,3.20
2022-09-17T17:23:32.617Z,4.40
2022-09-17T17:27:28.645Z,4.60
2022-09-17T17:30:51.044Z,4.60
2022-09-17T17:34:27.952Z,4.70
2022-09-17T17:38:04.432Z,5.30
2022-09-17T17:41:41.147Z,5.10
2022-09-17T17:45:17.843Z,4.60
2022-09-17T17:48:55.141Z,5.20
2022-09-17T17:52:53.760Z,3.80
2022-09-17T17:56:18.102Z,4.00
2022-09-17T17:59:52.898Z,5.00
2022-09-17T18:03:29.292Z,4.70
2022-09-17T18:07:06.218Z,4.20
2022-09-17T18:11:05.044Z,5.10
2022-09-17T18:14:26.851Z,4.50
2022-09-17T18:18:05.837Z,4.70
2022-09-17T18:21:40.340Z,5.30
2022-09-17T18:25:17.551Z,4.60
2022-09-17T18:28:54.659Z,6.10
2022-09-17T18:32:31.007Z,5.80
2022-09-17T18:36:07.776Z,7.40
2022-09-17T18:39:58.097Z,9.20
2022-09-17T18:43:21.470Z,8.30
2022-09-17T18:46:58.691Z,8.30
2022-09-17T18:50:35.587Z,5.30
2022-09-17T18:54:15.091Z,4.40
2022-09-17T18:57:52.640Z,3.60
2022-09-17T19:01:28.171Z,2.60
2022-09-17T19:05:02.364Z,2.40
2022-09-17T19:08:39.259Z,2.70
2022-09-17T19:12:16.058Z,2.70
2022-09-17T19:15:58.972Z,2.80
2022-09-17T19:19:30.194Z,2.50
2022-09-17T19:23:25.128Z,2.60
2022-09-17T19:26:50.761Z,2.50
2022-09-17T19:30:43.057Z,2.30
2022-09-17T19:34:04.928Z,2.10
2022-09-17T19:37:41.912Z,2.30
2022-09-17T19:41:20.907Z,2.20
2022-09-17T19:44:55.615Z,3.10
2022-09-17T19:48:32.627Z,2.50
2022-09-17T19:52:27.834Z,2.60
2022-09-17T19:55:53.210Z,2.80
2022-09-17T19:59:26.988Z,2.20
2022-09-17T20:03:04.357Z,3.20
2022-09-17T20:06:40.985Z,3.60
2022-09-17T20:10:37.298Z,3.70
2022-09-17T20:14:06.700Z,3.40
2022-09-17T20:17:35.767Z,3.30
2022-09-17T20:21:33.429Z,2.90
2022-09-17T20:24:55.398Z,3.60
2022-09-17T20:28:33.353Z,2.70
2022-09-17T20:32:27.993Z,2.30
2022-09-17T20:35:50.097Z,2.80
2022-09-17T20:39:27.061Z,3.10
2022-09-17T20:43:05.276Z,2.50
2022-09-17T20:46:46.037Z,2.30
2022-09-17T20:50:17.132Z,3.20
2022-09-17T20:53:54.177Z,2.70
2022-09-17T20:57:31.930Z,2.70
2022-09-17T21:01:17.732Z,2.40
2022-09-17T21:04:44.296Z,2.50
2022-09-17T21:08:20.971Z,3.00
2022-09-17T21:11:57.854Z,2.70
2022-09-17T21:15:34.497Z,2.90
2022-09-17T21:19:12.964Z,3.30
2022-09-17T21:22:48.167Z,2.20
2022-09-17T21:26:25.055Z,2.80
2022-09-17T21:30:03.072Z,2.10
2022-09-17T21:33:39.228Z,2.20
2022-09-17T21:37:15.505Z,2.50
2022-09-17T21:40:59.080Z,2.60
2022-09-17T21:44:29.352Z,2.40
2022-09-17T21:48:05.591Z,2.40
2022-09-17T21:51:42.909Z,2.00
2022-09-17T21:55:19.416Z,2.20
2022-09-17T21:58:59.266Z,2.30
2022-09-17T22:02:32.770Z,1.80
2022-09-17T22:06:16.117Z,2.30
2022-09-17T22:10:05.857Z,1.90
2022-09-17T22:14:04.217Z,1.60
2022-09-17T22:17:26.470Z,1.20
2022-09-17T22:21:21.146Z,1.80
2022-09-17T22:24:44.848Z,1.60
2022-09-17T22:28:21.699Z,1.30
2022-09-17T22:31:57.413Z,1.60
2022-09-17T22:35:33.887Z,1.20
2022-09-17T22:39:11.069Z,2.10
2022-09-17T22:43:06.438Z,1.30
2022-09-17T22:46:50.045Z,1.70
2022-09-17T22:50:12.264Z,1.60
2022-09-17T22:53:49.412Z,1.20
2022-09-17T22:57:44.642Z,1.50
2022-09-17T23:01:29.184Z,1.80
2022-09-17T23:05:09.674Z,1.30
2022-09-17T23:08:33.177Z,1.50
2022-09-17T23:12:27.212Z,2.20
2022-09-17T23:20:19.733Z,1.60
2022-09-17T23:24:07.672Z,1.90
2022-09-17T23:27:43.571Z,1.20
2022-09-17T23:31:40.021Z,1.20
2022-09-17T23:35:02.123Z,0.90
2022-09-17T23:38:40.068Z,1.00
2022-09-17T23:42:17.085Z,1.50
2022-09-17T23:46:11.953Z,1.10
2022-09-17T23:49:34.172Z,1.40
2022-09-17T23:53:10.550Z,1.10
2022-09-17T23:56:47.400Z,1.10
